Terminal Aerodrome Forecast
Issued by NWS El Paso, TX

Home | Current Version | Previous Version | Text Only | Print | Product List | Glossary On
Versions: 1 2 3 4 5 6 7 8 9 10 11 12 13 14 15 16 17 18 19 20 21 22 23 24 25 26 27 28 29 30
000
FTUS44 KEPZ 232322
TAFELP
TAF
KELP 232322Z 2400/2424 12012KT P6SM VCTS BKN070CB
      TEMPO 2400/2404 VRB30G45KT 3SM TSRA BKN040CB OVC100
     FM240500 04008KT P6SM SCT020 BKN040 BKN080
      TEMPO 2409/2413 BKN020
     FM241600 30005KT P6SM BKN040
     FM242000 30010KT P6SM BKN060=

USA.gov is the U.S. government's official web portal to all federal, state and local government web resources and services.